createdAt,value
2018-12-09T00:03:48.242Z,9.53
2018-12-09T00:08:44.816Z,9.07
2018-12-09T00:13:39.334Z,7.90
2018-12-09T00:18:33.961Z,8.43
2018-12-09T00:23:28.468Z,10.27
2018-12-09T00:28:23.018Z,8.97
2018-12-09T00:33:17.577Z,8.27
2018-12-09T00:38:12.118Z,8.40
2018-12-09T00:43:06.644Z,6.73
2018-12-09T00:48:01.154Z,7.60
2018-12-09T00:52:55.714Z,7.90
2018-12-09T00:57:50.230Z,6.57
2018-12-09T01:02:44.769Z,6.30
2018-12-09T01:07:39.279Z,5.47
2018-12-09T01:12:33.772Z,5.10
2018-12-09T01:17:28.286Z,5.10
2018-12-09T01:22:22.806Z,4.60
2018-12-09T01:27:17.857Z,4.93
2018-12-09T01:32:12.901Z,5.20
2018-12-09T01:37:07.439Z,5.27
2018-12-09T01:42:01.964Z,5.37
2018-12-09T01:46:56.449Z,4.63
2018-12-09T01:51:50.960Z,4.40
2018-12-09T01:56:46.020Z,5.07
2018-12-09T02:01:40.973Z,4.53
2018-12-09T02:06:35.677Z,4.60
2018-12-09T02:11:31.513Z,4.47
2018-12-09T02:16:26.062Z,4.57
2018-12-09T02:21:20.621Z,4.57
2018-12-09T02:26:15.437Z,4.63
2018-12-09T02:31:09.970Z,4.67
2018-12-09T02:36:04.508Z,3.93
2018-12-09T02:40:59.336Z,3.63
2018-12-09T02:45:53.837Z,3.60
2018-12-09T02:50:48.365Z,3.60
2018-12-09T02:55:43.376Z,4.57
2018-12-09T03:00:37.889Z,3.20
2018-12-09T03:05:32.409Z,3.20
2018-12-09T03:10:26.906Z,2.87
2018-12-09T03:15:21.429Z,2.90
2018-12-09T03:20:16.377Z,3.20
2018-12-09T03:25:10.914Z,2.50
2018-12-09T03:30:05.859Z,3.60
2018-12-09T03:35:00.819Z,3.73
2018-12-09T03:39:55.358Z,3.87
2018-12-09T03:44:50.078Z,3.10
2018-12-09T03:49:44.564Z,2.90
2018-12-09T03:54:39.213Z,2.97
2018-12-09T03:59:33.969Z,2.73
2018-12-09T04:04:28.493Z,2.93
2018-12-09T04:09:23.167Z,2.90
2018-12-09T04:14:17.695Z,2.83
2018-12-09T04:19:12.365Z,2.90
2018-12-09T04:24:06.861Z,2.70
2018-12-09T04:29:01.334Z,2.87
2018-12-09T04:39:32.013Z,3.30
2018-12-09T04:44:26.497Z,3.80
2018-12-09T04:49:20.976Z,2.70
2018-12-09T04:54:15.537Z,3.30
2018-12-09T04:59:18.220Z,9.17
2018-12-09T05:04:14.912Z,12.23
2018-12-09T05:09:09.661Z,3.27
2018-12-09T05:14:04.310Z,2.70
2018-12-09T05:18:58.799Z,3.00
2018-12-09T05:23:53.281Z,2.70
2018-12-09T05:28:48.322Z,4.33
2018-12-09T05:33:43.985Z,2.50
2018-12-09T05:38:38.658Z,65.20
2018-12-09T05:43:33.378Z,25.90
2018-12-09T05:48:27.924Z,19.03
2018-12-09T05:53:22.473Z,33.17
2018-12-09T05:58:17.001Z,10.90
2018-12-09T06:03:11.528Z,3.97
2018-12-09T06:08:06.084Z,3.40
2018-12-09T06:13:00.669Z,3.60
2018-12-09T06:17:55.248Z,4.77
2018-12-09T06:22:49.758Z,3.83
2018-12-09T06:27:44.277Z,3.30
2018-12-09T06:32:39.002Z,3.33
2018-12-09T06:37:33.609Z,3.80
2018-12-09T06:42:28.149Z,4.40
2018-12-09T06:47:22.668Z,4.13
2018-12-09T06:52:17.149Z,4.67
2018-12-09T06:57:11.637Z,34.70
2018-12-09T07:02:06.285Z,11.40
2018-12-09T07:07:01.176Z,16.27
2018-12-09T07:11:57.062Z,54.53
2018-12-09T07:16:51.967Z,33.23
2018-12-09T07:21:46.508Z,7.93
2018-12-09T07:26:42.480Z,6.57
2018-12-09T07:31:37.064Z,5.40
2018-12-09T07:36:31.701Z,5.90
2018-12-09T07:41:26.665Z,7.80
2018-12-09T07:46:21.217Z,7.60
2018-12-09T07:51:16.280Z,6.40
2018-12-09T07:56:10.871Z,10.20
2018-12-09T08:01:06.185Z,6.90
2018-12-09T08:06:00.773Z,9.97
2018-12-09T08:10:55.326Z,5.03
2018-12-09T08:15:49.862Z,8.23
2018-12-09T08:20:44.368Z,5.10
2018-12-09T08:25:38.881Z,5.00
2018-12-09T08:30:33.402Z,7.37
2018-12-09T08:35:27.995Z,4.93
2018-12-09T08:40:22.569Z,6.30
2018-12-09T08:45:17.101Z,3.40
2018-12-09T08:50:11.653Z,2.73
2018-12-09T08:55:06.312Z,3.30
2018-12-09T09:00:00.833Z,2.67
2018-12-09T09:04:55.334Z,2.80
2018-12-09T09:09:50.035Z,2.30
2018-12-09T09:14:45.473Z,3.10
2018-12-09T09:19:40.003Z,3.23
2018-12-09T09:24:34.511Z,3.53
2018-12-09T09:29:29.509Z,3.20
2018-12-09T09:34:24.025Z,3.30
2018-12-09T09:39:18.650Z,4.40
2018-12-09T09:44:13.468Z,1.57
2018-12-09T09:49:08.651Z,1.90
2018-12-09T09:54:03.214Z,1.77
2018-12-09T09:58:57.713Z,1.90
2018-12-09T10:03:52.265Z,2.20
2018-12-09T10:08:46.845Z,2.30
2018-12-09T10:13:42.461Z,2.87
2018-12-09T10:18:37.877Z,2.50
2018-12-09T10:23:32.414Z,3.30
2018-12-09T10:28:27.104Z,2.30
2018-12-09T10:33:21.629Z,2.50
2018-12-09T10:38:16.210Z,2.73
2018-12-09T10:43:10.784Z,2.27
2018-12-09T10:48:05.376Z,2.00
2018-12-09T10:52:59.953Z,2.00
2018-12-09T10:57:54.482Z,2.30
2018-12-09T11:02:54.959Z,1.97
2018-12-09T11:07:49.520Z,2.10
2018-12-09T11:12:44.019Z,2.10
2018-12-09T11:17:38.561Z,2.00
2018-12-09T11:22:33.053Z,1.80
2018-12-09T11:27:27.609Z,2.00
2018-12-09T11:32:22.133Z,2.57
2018-12-09T11:37:16.650Z,3.33
2018-12-09T11:42:11.180Z,3.20
2018-12-09T11:47:07.593Z,2.80
2018-12-09T11:52:08.038Z,2.77
2018-12-09T11:57:08.166Z,2.57
2018-12-09T12:02:06.013Z,2.47
2018-12-09T12:07:00.514Z,3.00
2018-12-09T12:11:58.841Z,2.80
2018-12-09T12:16:53.393Z,3.07
2018-12-09T12:21:48.195Z,2.80
2018-12-09T12:26:42.841Z,2.80
2018-12-09T12:31:37.385Z,2.40
2018-12-09T12:36:31.937Z,2.10
2018-12-09T12:41:26.489Z,2.13
2018-12-09T12:46:21.302Z,2.00
2018-12-09T12:51:15.901Z,1.83
2018-12-09T12:56:10.473Z,1.93
2018-12-09T13:01:05.150Z,2.10
2018-12-09T13:06:00.010Z,1.97
2018-12-09T13:10:54.629Z,2.03
2018-12-09T13:15:49.174Z,4.00
2018-12-09T13:20:43.742Z,14.33
2018-12-09T13:25:38.309Z,3.60
2018-12-09T13:30:32.875Z,2.93
2018-12-09T13:35:27.658Z,1.70
2018-12-09T13:40:22.402Z,2.20
2018-12-09T13:45:16.989Z,3.10
2018-12-09T13:50:11.606Z,2.00
2018-12-09T13:55:06.363Z,7.07
2018-12-09T14:00:00.957Z,3.50
2018-12-09T14:04:55.521Z,2.00
2018-12-09T14:09:51.250Z,1.90
2018-12-09T14:14:45.832Z,1.50
2018-12-09T14:19:41.744Z,1.50
2018-12-09T14:24:36.294Z,2.10
2018-12-09T14:29:31.071Z,2.20
2018-12-09T14:34:25.625Z,3.40
2018-12-09T14:39:20.157Z,2.57
2018-12-09T14:44:14.670Z,2.57
2018-12-09T14:49:09.226Z,4.37
2018-12-09T14:54:03.827Z,4.63
2018-12-09T14:58:58.512Z,2.50
2018-12-09T15:03:53.062Z,19.80
2018-12-09T15:08:47.621Z,5.87
2018-12-09T15:13:42.187Z,4.33
2018-12-09T15:18:36.770Z,5.80
2018-12-09T15:23:35.242Z,6.83
2018-12-09T15:28:30.878Z,5.47
2018-12-09T15:33:25.458Z,15.80
2018-12-09T15:38:20.006Z,6.00
2018-12-09T15:43:14.562Z,8.00
2018-12-09T15:48:09.127Z,9.00
2018-12-09T15:53:04.224Z,7.97
2018-12-09T15:57:58.775Z,9.37
2018-12-09T16:02:53.344Z,8.50
2018-12-09T16:07:48.035Z,8.20
2018-12-09T16:12:43.877Z,6.97
2018-12-09T16:17:38.514Z,7.63
2018-12-09T16:22:33.106Z,14.37
2018-12-09T16:27:27.649Z,5.00
2018-12-09T16:32:22.361Z,6.37
2018-12-09T16:37:16.937Z,10.67
2018-12-09T16:42:11.553Z,11.03
2018-12-09T16:47:07.373Z,9.63
2018-12-09T16:52:02.286Z,13.73
2018-12-09T16:56:56.946Z,9.93
2018-12-09T17:01:51.507Z,12.77
2018-12-09T17:06:46.190Z,16.13
2018-12-09T17:11:44.891Z,28.13
2018-12-09T17:16:39.452Z,11.80
2018-12-09T17:21:34.101Z,12.70
2018-12-09T17:26:28.844Z,5.37
2018-12-09T17:31:23.541Z,9.97
2018-12-09T17:36:18.079Z,11.07
2018-12-09T17:41:12.666Z,11.87
2018-12-09T17:46:08.057Z,11.33
2018-12-09T17:51:02.727Z,11.27
2018-12-09T17:55:57.449Z,11.63
2018-12-09T18:00:52.658Z,11.50
2018-12-09T18:05:47.374Z,9.40
2018-12-09T18:10:42.482Z,12.30
2018-12-09T18:15:37.698Z,11.37
2018-12-09T18:20:32.273Z,8.07
2018-12-09T18:25:26.883Z,18.37
2018-12-09T18:30:21.519Z,14.93
2018-12-09T18:35:16.189Z,13.50
2018-12-09T18:40:12.123Z,9.60
2018-12-09T18:45:10.226Z,10.17
2018-12-09T18:50:10.558Z,12.43
2018-12-09T18:55:10.069Z,9.87
2018-12-09T19:00:05.594Z,12.33
2018-12-09T19:05:00.254Z,11.70
2018-12-09T19:09:55.601Z,12.40
2018-12-09T19:14:50.226Z,13.10
2018-12-09T19:19:44.831Z,12.57
2018-12-09T19:24:39.419Z,13.10
2018-12-09T19:29:34.830Z,13.60
2018-12-09T19:34:29.759Z,33.40
2018-12-09T19:39:25.333Z,19.83
2018-12-09T19:44:20.170Z,21.17
2018-12-09T19:49:15.004Z,19.47
2018-12-09T19:54:09.664Z,21.50
2018-12-09T19:59:04.380Z,21.70
2018-12-09T20:04:03.185Z,29.67
2018-12-09T20:08:57.946Z,36.33
2018-12-09T20:13:52.500Z,33.80
2018-12-09T20:18:47.641Z,23.00
2018-12-09T20:23:42.132Z,26.70
2018-12-09T20:28:36.698Z,25.60
2018-12-09T20:33:31.248Z,24.20
2018-12-09T20:38:25.816Z,22.97
2018-12-09T20:43:20.406Z,37.90
2018-12-09T20:48:14.954Z,22.20
2018-12-09T20:53:09.455Z,22.37
2018-12-09T20:58:04.303Z,69.10
2018-12-09T21:02:58.873Z,21.67
2018-12-09T21:07:55.055Z,21.27
2018-12-09T21:12:49.605Z,24.87
2018-12-09T21:17:44.141Z,22.90
2018-12-09T21:22:38.737Z,22.43
2018-12-09T21:27:33.339Z,27.97
2018-12-09T21:32:27.885Z,26.30
2018-12-09T21:37:22.411Z,20.37
2018-12-09T21:42:16.920Z,19.63
2018-12-09T21:47:11.842Z,18.63
2018-12-09T21:52:05.906Z,20.83
2018-12-09T21:57:00.449Z,21.63
2018-12-09T22:01:54.997Z,22.70
2018-12-09T22:06:49.753Z,21.97
2018-12-09T22:11:44.237Z,20.53
2018-12-09T22:16:38.741Z,21.57
2018-12-09T22:21:33.301Z,20.83
2018-12-09T22:26:27.781Z,18.07
2018-12-09T22:31:22.296Z,16.07
2018-12-09T22:36:16.841Z,15.50
2018-12-09T22:41:11.326Z,16.20
2018-12-09T22:46:05.833Z,15.10
2018-12-09T22:51:00.328Z,16.20
2018-12-09T22:55:54.833Z,18.83
2018-12-09T23:00:55.098Z,18.23
2018-12-09T23:05:51.653Z,17.90
2018-12-09T23:10:46.169Z,17.27
2018-12-09T23:15:40.665Z,16.90
2018-12-09T23:20:35.154Z,17.00
2018-12-09T23:25:29.669Z,16.77
2018-12-09T23:30:24.170Z,17.50
2018-12-09T23:35:18.640Z,16.67
2018-12-09T23:40:13.146Z,15.40
2018-12-09T23:45:07.660Z,16.70
2018-12-09T23:50:02.139Z,17.80
2018-12-09T23:54:56.681Z,15.13
2018-12-09T23:59:52.397Z,20.57
